createdAt,value
2023-05-09T00:01:23.405Z,15.50
2023-05-09T00:03:51.444Z,15.44
2023-05-09T00:06:19.515Z,15.50
2023-05-09T00:08:46.167Z,15.44
2023-05-09T00:11:12.776Z,15.50
2023-05-09T00:13:39.423Z,15.38
2023-05-09T00:16:06.480Z,15.63
2023-05-09T00:18:34.096Z,15.63
2023-05-09T00:21:03.088Z,15.50
2023-05-09T00:23:32.786Z,15.44
2023-05-09T00:25:59.623Z,15.44
2023-05-09T00:28:26.634Z,14.75
2023-05-09T00:30:53.683Z,14.63
2023-05-09T00:33:20.799Z,14.56
2023-05-09T00:35:47.422Z,14.56
2023-05-09T00:38:14.111Z,14.56
2023-05-09T00:40:40.661Z,14.69
2023-05-09T00:43:07.484Z,15.00
2023-05-09T00:45:34.717Z,15.25
2023-05-09T00:48:01.420Z,15.00
2023-05-09T00:50:28.378Z,15.13
2023-05-09T00:52:55.595Z,15.25
2023-05-09T00:55:23.701Z,15.19
2023-05-09T00:57:50.388Z,14.94
2023-05-09T01:00:17.714Z,15.13
2023-05-09T01:02:53.005Z,15.13
2023-05-09T01:05:20.426Z,15.06
2023-05-09T01:08:13.093Z,15.06
2023-05-09T01:10:48.042Z,15.06
2023-05-09T01:13:56.209Z,15.06
2023-05-09T01:16:48.239Z,15.13
2023-05-09T01:19:47.316Z,14.94
2023-05-09T01:22:16.451Z,15.06
2023-05-09T01:24:49.219Z,14.94
2023-05-09T01:27:39.216Z,14.88
2023-05-09T01:30:10.063Z,14.88
2023-05-09T01:32:39.707Z,14.88
2023-05-09T01:35:12.873Z,14.75
2023-05-09T01:37:43.410Z,14.81
2023-05-09T01:40:20.814Z,14.94
2023-05-09T01:43:07.880Z,14.88
2023-05-09T01:45:36.332Z,14.63
2023-05-09T01:48:05.178Z,14.75
2023-05-09T01:50:35.526Z,14.94
2023-05-09T01:53:05.810Z,15.06
2023-05-09T01:55:36.150Z,14.75
2023-05-09T01:58:05.898Z,14.44
2023-05-09T02:00:34.775Z,14.44
2023-05-09T02:03:04.067Z,14.56
2023-05-09T02:05:33.255Z,14.75
2023-05-09T02:08:01.153Z,14.69
2023-05-09T02:10:28.861Z,14.88
2023-05-09T02:12:56.465Z,14.81
2023-05-09T02:15:23.292Z,14.94
2023-05-09T02:17:50.156Z,14.69
2023-05-09T02:20:16.814Z,14.69
2023-05-09T02:22:44.465Z,14.88
2023-05-09T02:25:15.981Z,14.88
2023-05-09T02:27:45.923Z,14.81
2023-05-09T02:30:18.134Z,14.63
2023-05-09T02:32:48.958Z,14.63
2023-05-09T02:35:18.399Z,14.63
2023-05-09T02:37:46.260Z,14.56
2023-05-09T02:40:14.359Z,14.38
2023-05-09T02:42:41.314Z,14.38
2023-05-09T02:45:10.497Z,14.13
2023-05-09T02:47:38.129Z,14.00
2023-05-09T02:50:05.897Z,14.25
2023-05-09T02:52:32.505Z,14.13
2023-05-09T02:54:59.147Z,14.06
2023-05-09T02:57:25.773Z,14.38
2023-05-09T02:59:52.431Z,14.38
2023-05-09T03:02:19.144Z,14.31
2023-05-09T03:04:45.997Z,14.38
2023-05-09T03:07:12.680Z,14.31
2023-05-09T03:09:41.070Z,14.25
2023-05-09T03:12:08.065Z,14.25
2023-05-09T03:14:34.631Z,14.38
2023-05-09T03:17:01.230Z,14.06
2023-05-09T03:19:27.825Z,14.19
2023-05-09T03:21:54.397Z,14.25
2023-05-09T03:24:21.673Z,14.25
2023-05-09T03:26:48.252Z,14.13
2023-05-09T03:29:14.895Z,14.00
2023-05-09T03:31:41.527Z,14.00
2023-05-09T03:34:12.996Z,13.94
2023-05-09T03:36:39.604Z,13.94
2023-05-09T03:39:06.304Z,14.13
2023-05-09T03:41:32.936Z,14.00
2023-05-09T03:43:59.503Z,14.00
2023-05-09T03:46:26.196Z,13.88
2023-05-09T03:48:52.805Z,13.94
2023-05-09T03:51:20.628Z,14.00
2023-05-09T03:53:47.915Z,14.00
2023-05-09T03:56:14.517Z,13.88
2023-05-09T03:58:41.110Z,13.94
2023-05-09T04:01:07.789Z,13.88
2023-05-09T04:03:34.436Z,13.81
2023-05-09T04:06:01.250Z,13.81
2023-05-09T04:08:28.019Z,13.94
2023-05-09T04:10:54.655Z,14.00
2023-05-09T04:13:21.342Z,13.88
2023-05-09T04:15:48.040Z,13.69
2023-05-09T04:18:14.798Z,13.69
2023-05-09T04:20:41.457Z,13.88
2023-05-09T04:23:08.102Z,13.75
2023-05-09T04:25:35.496Z,13.69
2023-05-09T04:28:02.360Z,13.88
2023-05-09T04:30:29.137Z,14.00
2023-05-09T04:32:56.034Z,13.88
2023-05-09T04:35:22.801Z,13.88
2023-05-09T04:37:49.918Z,13.94
2023-05-09T04:40:16.874Z,14.00
2023-05-09T04:42:43.523Z,14.00
2023-05-09T04:45:11.742Z,13.88
2023-05-09T04:47:38.649Z,13.88
2023-05-09T04:50:05.931Z,13.75
2023-05-09T04:52:32.583Z,13.75
2023-05-09T04:54:59.303Z,13.69
2023-05-09T04:57:25.869Z,13.69
2023-05-09T04:59:53.028Z,13.63
2023-05-09T05:02:21.134Z,13.63
2023-05-09T05:04:47.875Z,13.75
2023-05-09T05:07:14.577Z,13.75
2023-05-09T05:09:41.307Z,13.81
2023-05-09T05:12:09.797Z,13.75
2023-05-09T05:14:36.744Z,13.88
2023-05-09T05:17:03.394Z,13.88
2023-05-09T05:19:30.247Z,13.94
2023-05-09T05:21:56.853Z,13.88
2023-05-09T05:24:23.442Z,13.88
2023-05-09T05:26:50.101Z,13.94
2023-05-09T05:29:17.617Z,13.94
2023-05-09T05:31:44.332Z,14.00
2023-05-09T05:34:10.930Z,14.06
2023-05-09T05:36:37.638Z,14.06
2023-05-09T05:39:04.491Z,14.06
2023-05-09T05:41:31.526Z,14.19
2023-05-09T05:43:58.116Z,14.25
2023-05-09T05:46:24.790Z,14.25
2023-05-09T05:48:51.435Z,14.25
2023-05-09T05:51:18.055Z,14.31
2023-05-09T05:53:44.635Z,14.44
2023-05-09T05:56:11.193Z,14.38
2023-05-09T05:58:38.285Z,14.44
2023-05-09T06:01:05.077Z,14.44
2023-05-09T06:03:32.142Z,14.56
2023-05-09T06:05:59.382Z,14.50
2023-05-09T06:08:26.001Z,14.50
2023-05-09T06:10:52.697Z,14.50
2023-05-09T06:13:19.388Z,14.56
2023-05-09T06:15:46.091Z,14.56
2023-05-09T06:18:13.096Z,14.63
2023-05-09T06:20:39.698Z,14.63
2023-05-09T06:23:06.320Z,14.63
2023-05-09T06:25:32.959Z,14.69
2023-05-09T06:27:59.661Z,14.69
2023-05-09T06:30:27.170Z,14.69
2023-05-09T06:32:55.062Z,14.69
2023-05-09T06:35:21.989Z,14.69
2023-05-09T06:37:49.125Z,14.69
2023-05-09T06:40:16.729Z,14.75
2023-05-09T06:42:43.408Z,14.69
2023-05-09T06:45:10.627Z,14.69
2023-05-09T06:47:37.354Z,14.69
2023-05-09T06:50:04.188Z,14.75
2023-05-09T06:52:30.868Z,14.75
2023-05-09T06:54:57.430Z,14.81
2023-05-09T06:57:24.223Z,14.75
2023-05-09T06:59:51.010Z,14.81
2023-05-09T07:02:17.806Z,14.75
2023-05-09T07:04:44.468Z,14.88
2023-05-09T07:07:11.217Z,14.81
2023-05-09T07:09:37.909Z,14.81
2023-05-09T07:12:04.846Z,14.81
2023-05-09T07:14:31.484Z,14.88
2023-05-09T07:17:09.989Z,14.81
2023-05-09T07:19:44.619Z,14.88
2023-05-09T07:22:11.249Z,14.81
2023-05-09T07:24:37.949Z,14.88
2023-05-09T07:27:04.648Z,14.81
2023-05-09T07:29:31.346Z,14.88
2023-05-09T07:31:57.976Z,14.94
2023-05-09T07:34:25.536Z,14.94
2023-05-09T07:36:52.317Z,14.94
2023-05-09T07:39:19.062Z,14.88
2023-05-09T07:41:47.869Z,14.88
2023-05-09T07:44:15.810Z,14.81
2023-05-09T07:46:42.730Z,14.88
2023-05-09T07:49:09.376Z,14.81
2023-05-09T07:51:35.987Z,14.88
2023-05-09T07:54:02.567Z,14.81
2023-05-09T07:56:33.500Z,14.81
2023-05-09T07:59:00.408Z,14.75
2023-05-09T08:01:27.006Z,14.75
2023-05-09T08:03:53.787Z,14.81
2023-05-09T08:06:20.556Z,14.81
2023-05-09T08:08:47.158Z,14.94
2023-05-09T08:11:13.788Z,14.75
2023-05-09T08:13:40.472Z,14.75
2023-05-09T08:16:07.221Z,14.75
2023-05-09T08:18:33.858Z,14.75
2023-05-09T08:21:00.994Z,14.81
2023-05-09T08:23:27.962Z,14.75
2023-05-09T08:25:55.335Z,14.75
2023-05-09T08:28:24.321Z,14.81
2023-05-09T08:30:51.627Z,14.88
2023-05-09T08:33:18.298Z,14.75
2023-05-09T08:35:44.950Z,14.81
2023-05-09T08:38:11.572Z,14.75
2023-05-09T08:40:38.377Z,14.88
2023-05-09T08:43:07.533Z,14.69
2023-05-09T08:45:47.096Z,14.75
2023-05-09T08:48:17.464Z,14.81
2023-05-09T08:50:45.171Z,14.75
2023-05-09T09:01:36.120Z,14.63
2023-05-09T09:04:06.478Z,14.56
2023-05-09T09:06:36.708Z,14.69
2023-05-09T09:09:06.560Z,14.75
2023-05-09T09:11:34.787Z,14.69
2023-05-09T09:14:06.449Z,14.69
2023-05-09T09:16:34.450Z,14.75
2023-05-09T09:19:04.180Z,14.75
2023-05-09T09:21:33.060Z,14.75
2023-05-09T09:24:00.455Z,14.69
2023-05-09T09:26:31.677Z,14.69
2023-05-09T09:28:58.325Z,14.75
2023-05-09T09:31:27.622Z,14.69
2023-05-09T09:34:02.092Z,14.69
2023-05-09T09:36:30.535Z,14.69
2023-05-09T09:39:00.556Z,14.75
2023-05-09T09:41:31.973Z,14.75
2023-05-09T09:43:58.911Z,14.75
2023-05-09T09:46:25.734Z,14.75
2023-05-09T09:48:56.714Z,14.75
2023-05-09T09:51:27.628Z,14.81
2023-05-09T09:53:54.259Z,14.88
2023-05-09T09:56:22.178Z,14.75
2023-05-09T09:58:48.786Z,14.63
2023-05-09T10:01:16.680Z,14.63
2023-05-09T10:03:48.167Z,14.63
2023-05-09T10:06:16.737Z,14.50
2023-05-09T10:08:49.180Z,14.50
2023-05-09T10:11:15.950Z,14.63
2023-05-09T10:13:44.397Z,14.63
2023-05-09T10:16:12.792Z,14.56
2023-05-09T10:18:43.029Z,14.50
2023-05-09T10:21:15.348Z,14.50
2023-05-09T10:23:48.433Z,14.56
2023-05-09T10:26:27.347Z,14.63
2023-05-09T10:28:57.071Z,14.69
2023-05-09T10:31:28.144Z,14.75
2023-05-09T10:33:56.034Z,14.56
2023-05-09T10:36:26.695Z,14.63
2023-05-09T10:38:55.009Z,14.63
2023-05-09T10:41:22.395Z,14.56
2023-05-09T10:43:49.626Z,14.50
2023-05-09T10:46:17.425Z,14.63
2023-05-09T10:48:45.486Z,14.56
2023-05-09T10:51:13.492Z,14.56
2023-05-09T10:53:48.527Z,14.63
2023-05-09T10:56:33.084Z,14.63
2023-05-09T10:59:00.351Z,14.50
2023-05-09T11:01:37.028Z,14.56
2023-05-09T11:04:12.923Z,14.63
2023-05-09T11:06:51.284Z,14.69
2023-05-09T11:09:39.010Z,14.63
2023-05-09T11:12:05.830Z,14.63
2023-05-09T11:14:35.690Z,14.63
2023-05-09T11:17:04.993Z,14.63
2023-05-09T11:19:57.772Z,14.63
2023-05-09T11:22:32.096Z,14.69
2023-05-09T11:25:05.916Z,14.63
2023-05-09T11:27:49.488Z,14.75
2023-05-09T11:30:18.766Z,14.63
2023-05-09T11:33:00.561Z,14.63
2023-05-09T11:35:27.936Z,14.63
2023-05-09T11:38:03.876Z,14.56
2023-05-09T11:40:32.057Z,14.63
2023-05-09T11:43:00.209Z,14.63
2023-05-09T11:45:32.234Z,14.63
2023-05-09T11:48:01.071Z,14.56
2023-05-09T11:50:28.592Z,14.56
2023-05-09T11:52:55.260Z,14.69
2023-05-09T11:55:22.897Z,14.50
2023-05-09T11:57:52.260Z,14.44
2023-05-09T12:00:21.538Z,14.44
2023-05-09T12:02:50.110Z,14.38
2023-05-09T12:05:19.073Z,14.25
2023-05-09T12:07:47.019Z,14.19
2023-05-09T12:10:16.201Z,14.25
2023-05-09T12:12:45.662Z,14.25
2023-05-09T12:15:16.912Z,14.31
2023-05-09T12:17:47.098Z,14.44
2023-05-09T12:20:15.041Z,14.38
2023-05-09T12:22:52.647Z,14.25
2023-05-09T12:25:19.213Z,14.19
2023-05-09T12:27:45.945Z,14.25
2023-05-09T12:30:15.965Z,14.31
2023-05-09T12:32:43.555Z,14.25
2023-05-09T12:35:12.050Z,14.31
2023-05-09T12:37:39.224Z,14.38
2023-05-09T12:40:11.313Z,14.31
2023-05-09T12:42:38.993Z,14.25
2023-05-09T12:45:08.806Z,14.25
2023-05-09T12:47:35.660Z,14.31
2023-05-09T12:50:04.905Z,14.38
2023-05-09T12:52:41.607Z,14.44
2023-05-09T12:55:14.390Z,14.56
2023-05-09T12:57:42.917Z,14.56
2023-05-09T13:00:12.080Z,14.75
2023-05-09T13:02:41.993Z,14.75
2023-05-09T13:05:12.920Z,14.75
2023-05-09T13:07:45.447Z,14.63
2023-05-09T13:10:19.380Z,14.69
2023-05-09T13:12:48.323Z,14.75
2023-05-09T13:15:17.174Z,14.69
2023-05-09T13:17:44.184Z,14.69
2023-05-09T13:20:11.039Z,14.69
2023-05-09T13:22:37.853Z,14.63
2023-05-09T13:25:05.144Z,14.69
2023-05-09T13:27:32.897Z,14.63
2023-05-09T13:29:59.957Z,14.63
2023-05-09T13:32:26.648Z,14.63
2023-05-09T13:34:53.374Z,14.63
2023-05-09T13:37:20.085Z,14.63
2023-05-09T13:39:46.758Z,14.63
2023-05-09T13:42:13.581Z,14.75
2023-05-09T13:44:40.325Z,14.81
2023-05-09T13:47:07.808Z,14.81
2023-05-09T13:49:34.792Z,14.88
2023-05-09T13:52:01.532Z,14.75
2023-05-09T13:54:29.757Z,14.75
2023-05-09T13:56:56.360Z,14.75
2023-05-09T13:59:22.921Z,14.69
2023-05-09T14:01:49.659Z,14.69
2023-05-09T14:04:16.434Z,14.63
2023-05-09T14:06:48.082Z,14.56
2023-05-09T14:09:15.640Z,14.56
2023-05-09T14:11:42.739Z,14.75
2023-05-09T14:14:09.336Z,14.75
2023-05-09T14:16:36.159Z,14.63
2023-05-09T14:19:02.826Z,14.63
2023-05-09T14:21:29.377Z,14.63
2023-05-09T14:23:55.950Z,14.69
2023-05-09T14:26:22.803Z,14.63
2023-05-09T14:28:49.405Z,14.63
2023-05-09T14:31:16.064Z,14.63
2023-05-09T14:33:42.645Z,14.50
2023-05-09T14:36:09.338Z,14.56
2023-05-09T14:38:36.829Z,14.56
2023-05-09T14:41:04.242Z,14.56
2023-05-09T14:43:30.834Z,14.56
2023-05-09T14:45:57.435Z,14.50
2023-05-09T14:48:23.987Z,14.56
2023-05-09T14:50:53.599Z,14.69
2023-05-09T14:53:20.254Z,14.63
2023-05-09T14:55:47.130Z,14.63
2023-05-09T14:58:14.351Z,14.69
2023-05-09T15:00:40.928Z,14.75
2023-05-09T15:03:07.552Z,14.63
2023-05-09T15:05:34.135Z,14.50
2023-05-09T15:08:01.030Z,14.50
2023-05-09T15:10:27.837Z,14.63
2023-05-09T15:12:55.248Z,14.50
2023-05-09T15:15:24.142Z,14.56
2023-05-09T15:17:52.374Z,14.69
2023-05-09T15:20:19.626Z,14.56
2023-05-09T15:22:50.513Z,14.56
2023-05-09T15:25:17.376Z,14.56
2023-05-09T15:27:44.075Z,14.75
2023-05-09T15:30:11.734Z,14.63
2023-05-09T15:32:39.810Z,14.63
2023-05-09T15:35:07.325Z,14.75
2023-05-09T15:37:35.846Z,14.69
2023-05-09T15:40:02.819Z,14.63
2023-05-09T15:42:29.572Z,14.63
2023-05-09T15:44:56.604Z,14.69
2023-05-09T15:47:23.248Z,14.75
2023-05-09T15:49:49.949Z,14.63
2023-05-09T15:52:16.938Z,14.50
2023-05-09T15:54:45.193Z,14.56
2023-05-09T15:57:13.305Z,14.56
2023-05-09T15:59:40.217Z,14.56
2023-05-09T16:02:06.961Z,14.56
2023-05-09T16:04:33.688Z,14.50
2023-05-09T16:07:03.746Z,14.63
2023-05-09T16:09:30.385Z,14.44
2023-05-09T16:11:57.048Z,14.50
2023-05-09T16:14:23.747Z,14.44
2023-05-09T16:16:52.439Z,14.38
2023-05-09T16:19:19.074Z,14.50
2023-05-09T16:21:46.794Z,14.38
2023-05-09T16:24:13.473Z,14.38
2023-05-09T16:26:40.155Z,14.25
2023-05-09T16:29:06.829Z,14.38
2023-05-09T16:31:35.698Z,14.31
2023-05-09T16:34:03.000Z,14.31
2023-05-09T16:36:30.316Z,14.25
2023-05-09T16:38:56.964Z,14.25
2023-05-09T16:41:23.668Z,14.25
2023-05-09T16:43:50.280Z,14.31
2023-05-09T16:46:17.005Z,14.25
2023-05-09T16:48:43.648Z,14.38
2023-05-09T16:51:10.244Z,14.38
2023-05-09T16:53:36.811Z,14.44
2023-05-09T16:56:04.359Z,14.38
2023-05-09T16:58:31.044Z,14.44
2023-05-09T17:00:59.876Z,14.31
2023-05-09T17:03:26.443Z,14.38
2023-05-09T17:05:53.018Z,14.31
2023-05-09T17:08:19.753Z,14.25
2023-05-09T17:10:46.394Z,14.25
2023-05-09T17:13:12.991Z,14.25
2023-05-09T17:15:39.789Z,14.31
2023-05-09T17:18:06.465Z,14.19
2023-05-09T17:20:33.184Z,14.25
2023-05-09T17:22:59.771Z,14.19
2023-05-09T17:25:26.486Z,14.25
2023-05-09T17:27:53.631Z,14.19
2023-05-09T17:30:22.686Z,14.25
2023-05-09T17:32:50.227Z,14.19
2023-05-09T17:35:19.345Z,14.06
2023-05-09T17:37:46.225Z,14.25
2023-05-09T17:40:13.255Z,14.19
2023-05-09T17:42:40.389Z,14.19
2023-05-09T17:45:07.825Z,14.19
2023-05-09T17:47:34.416Z,14.25
2023-05-09T17:50:01.222Z,14.19
2023-05-09T17:52:27.878Z,14.19
2023-05-09T17:54:54.453Z,14.13
2023-05-09T17:57:21.065Z,14.13
2023-05-09T17:59:48.044Z,14.13
2023-05-09T18:02:14.731Z,14.06
2023-05-09T18:04:41.433Z,14.06
2023-05-09T18:07:08.290Z,14.13
2023-05-09T18:09:34.929Z,14.13
2023-05-09T18:12:01.478Z,14.06
2023-05-09T18:14:28.467Z,14.06
2023-05-09T18:16:55.062Z,14.13
2023-05-09T18:19:21.720Z,14.06
2023-05-09T18:21:48.326Z,14.00
2023-05-09T18:24:16.918Z,14.00
2023-05-09T18:26:43.729Z,14.06
2023-05-09T18:29:10.378Z,14.00
2023-05-09T18:31:38.881Z,14.00
2023-05-09T18:34:06.060Z,14.00
2023-05-09T18:36:33.256Z,14.00
2023-05-09T18:38:59.902Z,13.88
2023-05-09T18:41:26.730Z,13.94
2023-05-09T18:43:53.297Z,14.00
2023-05-09T18:46:21.255Z,14.00
2023-05-09T18:48:50.859Z,14.00
2023-05-09T18:51:18.702Z,14.00
2023-05-09T18:53:47.329Z,14.13
2023-05-09T18:56:14.429Z,14.06
2023-05-09T18:58:41.376Z,14.06
2023-05-09T19:01:11.437Z,14.06
2023-05-09T19:03:45.853Z,14.06
2023-05-09T19:06:13.877Z,13.94
2023-05-09T19:08:41.967Z,13.94
2023-05-09T19:11:08.981Z,13.88
2023-05-09T19:13:38.474Z,13.88
2023-05-09T19:16:06.904Z,13.88
2023-05-09T19:18:34.057Z,13.88
2023-05-09T19:21:01.585Z,13.88
2023-05-09T19:23:28.427Z,13.81
2023-05-09T19:25:55.480Z,13.88
2023-05-09T19:28:22.999Z,13.81
2023-05-09T19:30:50.401Z,13.88
2023-05-09T19:33:17.774Z,13.94
2023-05-09T19:35:44.560Z,13.81
2023-05-09T19:38:12.048Z,13.88
2023-05-09T19:40:39.677Z,13.88
2023-05-09T19:43:06.270Z,13.94
2023-05-09T19:45:32.872Z,13.88
2023-05-09T19:47:59.660Z,13.88
2023-05-09T19:50:26.374Z,13.88
2023-05-09T19:52:52.933Z,13.81
2023-05-09T19:55:19.548Z,13.75
2023-05-09T19:57:46.667Z,13.75
2023-05-09T20:00:13.913Z,13.69
2023-05-09T20:02:40.890Z,13.69
2023-05-09T20:05:07.925Z,13.69
2023-05-09T20:07:34.488Z,13.69
2023-05-09T20:10:01.046Z,13.69
2023-05-09T20:12:29.929Z,13.63
2023-05-09T20:14:56.872Z,13.63
2023-05-09T20:17:23.564Z,13.63
2023-05-09T20:19:50.156Z,13.56
2023-05-09T20:22:16.831Z,13.56
2023-05-09T20:24:43.415Z,13.63
2023-05-09T20:27:09.994Z,13.56
2023-05-09T20:29:36.681Z,13.44
2023-05-09T20:32:03.550Z,13.44
2023-05-09T20:34:30.253Z,13.44
2023-05-09T20:36:56.846Z,13.44
2023-05-09T20:39:24.473Z,13.31
2023-05-09T20:41:52.065Z,13.31
2023-05-09T20:44:19.233Z,13.25
2023-05-09T20:46:46.162Z,13.25
2023-05-09T20:49:13.073Z,13.25
2023-05-09T20:51:39.762Z,13.25
2023-05-09T20:54:07.096Z,13.19
2023-05-09T20:56:35.323Z,13.25
2023-05-09T20:59:04.108Z,13.25
2023-05-09T21:01:36.683Z,13.19
2023-05-09T21:04:05.571Z,13.25
2023-05-09T21:06:33.082Z,13.19
2023-05-09T21:08:59.759Z,13.19
2023-05-09T21:11:26.415Z,13.25
2023-05-09T21:13:52.984Z,13.25
2023-05-09T21:16:19.775Z,13.31
2023-05-09T21:18:46.436Z,13.31
2023-05-09T21:21:13.129Z,13.25
2023-05-09T21:23:39.914Z,13.19
2023-05-09T21:26:06.635Z,13.25
2023-05-09T21:28:33.512Z,13.25
2023-05-09T21:31:01.561Z,13.31
2023-05-09T21:33:28.306Z,13.19
2023-05-09T21:35:54.956Z,13.19
2023-05-09T21:38:21.594Z,13.25
2023-05-09T21:40:50.536Z,13.19
2023-05-09T21:43:18.260Z,13.25
2023-05-09T21:45:45.545Z,13.44
2023-05-09T21:48:12.209Z,13.44
2023-05-09T21:50:38.951Z,13.44
2023-05-09T21:53:05.906Z,13.31
2023-05-09T21:55:32.483Z,13.44
2023-05-09T21:57:59.083Z,13.38
2023-05-09T22:00:25.660Z,13.38
2023-05-09T22:02:52.482Z,13.44
2023-05-09T22:05:19.182Z,13.31
2023-05-09T22:07:45.825Z,13.38
2023-05-09T22:10:12.459Z,13.19
2023-05-09T22:12:39.053Z,13.25
2023-05-09T22:15:06.282Z,13.44
2023-05-09T22:17:33.224Z,13.44
2023-05-09T22:19:59.827Z,13.38
2023-05-09T22:22:27.092Z,13.25
2023-05-09T22:24:53.825Z,13.31
2023-05-09T22:27:20.752Z,13.44
2023-05-09T22:29:47.426Z,13.31
2023-05-09T22:32:14.262Z,13.31
2023-05-09T22:34:40.865Z,13.31
2023-05-09T22:37:07.522Z,13.38
2023-05-09T22:39:34.204Z,13.44
2023-05-09T22:42:02.480Z,13.19
2023-05-09T22:44:29.137Z,13.31
2023-05-09T22:46:55.799Z,13.19
2023-05-09T22:49:22.381Z,13.25
2023-05-09T22:51:49.075Z,13.25
2023-05-09T22:54:20.477Z,13.31
2023-05-09T22:56:47.438Z,13.19
2023-05-09T22:59:14.228Z,13.38
2023-05-09T23:01:40.869Z,13.44
2023-05-09T23:04:07.553Z,13.44
2023-05-09T23:06:34.237Z,13.25
2023-05-09T23:09:00.932Z,13.38
2023-05-09T23:11:27.566Z,13.44
2023-05-09T23:13:54.175Z,13.44
2023-05-09T23:16:20.941Z,13.50
2023-05-09T23:18:47.685Z,13.38
2023-05-09T23:21:14.348Z,13.38
2023-05-09T23:23:40.937Z,13.44
2023-05-09T23:26:07.547Z,13.44
2023-05-09T23:28:34.360Z,13.38
2023-05-09T23:31:01.283Z,13.44
2023-05-09T23:33:27.897Z,13.38
2023-05-09T23:35:54.537Z,13.44
2023-05-09T23:38:21.136Z,13.44
2023-05-09T23:40:47.713Z,13.44
2023-05-09T23:43:14.373Z,13.44
2023-05-09T23:45:41.184Z,13.44
2023-05-09T23:48:07.883Z,13.38
2023-05-09T23:50:34.596Z,13.38
2023-05-09T23:53:01.490Z,13.38
2023-05-09T23:55:28.097Z,13.44
2023-05-09T23:57:54.712Z,13.44
